Time;durP1;ratioP1;P1;durP2;ratioP2;P2;SDS_P1;SDS_P2;PMS_P1;PMS_P2;Temp;Humidity;BMP_temperature;BMP_pressure;BME280_temperature;BME280_humidity;BME280_pressure;Samples;Min_cycle;Max_cycle;Signal;HPM_P1;HPM_P2
2023/01/12 00:01:14;;;;;;;48.50;32.63;;;;;;;15.85;49.73;93506.84;4980855;28;20496;-89
2023/01/12 00:03:39;;;;;;;49.03;32.60;;;;;;;15.89;49.77;93496.44;4969019;28;20034;-86
2023/01/12 00:06:08;;;;;;;47.45;32.03;;;;;;;15.91;49.48;93502.16;4959992;28;20672;-86
2023/01/12 00:08:34;;;;;;;48.85;32.70;;;;;;;15.89;49.74;93501.91;4980742;28;20548;-86
2023/01/12 00:11:00;;;;;;;49.95;32.50;;;;;;;15.89;49.71;93499.16;4968849;28;20054;-86
2023/01/12 00:13:30;;;;;;;46.28;32.47;;;;;;;15.85;49.83;93495.94;4957929;28;20136;-91
2023/01/12 00:18:43;;;;;;;48.00;30.98;;;;;;;15.86;49.73;93497.41;4997243;28;20097;-86
2023/01/12 00:21:08;;;;;;;46.00;30.52;;;;;;;15.87;49.43;93498.91;5019505;28;20505;-87
2023/01/12 00:23:34;;;;;;;46.88;30.83;;;;;;;15.88;49.58;93507.84;4991803;28;20108;-88
2023/01/12 00:25:59;;;;;;;45.47;30.25;;;;;;;15.87;49.63;93507.09;4997728;28;20050;-91
2023/01/12 00:28:25;;;;;;;44.08;30.83;;;;;;;15.87;49.67;93509.06;5007191;28;20038;-90
2023/01/12 00:30:50;;;;;;;42.55;28.63;;;;;;;15.83;49.67;93512.03;5005824;28;20033;-87
2023/01/12 00:33:16;;;;;;;42.45;27.98;;;;;;;15.89;49.53;93514.78;4989773;28;20038;-87
2023/01/12 00:35:41;;;;;;;43.42;29.25;;;;;;;15.85;49.54;93501.38;4959125;28;20034;-86
2023/01/12 00:38:06;;;;;;;42.53;28.08;;;;;;;15.85;49.47;93508.81;5001983;28;20035;-90
2023/01/12 00:40:34;;;;;;;43.42;28.13;;;;;;;15.83;49.83;93503.09;5001902;28;20034;-86
2023/01/12 00:45:49;;;;;;;43.67;27.98;;;;;;;15.88;49.71;93516.75;5023146;28;20076;-86
2023/01/12 00:48:14;;;;;;;42.20;27.77;;;;;;;15.89;49.52;93509.31;5012517;28;20405;-86
2023/01/12 00:50:39;;;;;;;40.50;27.25;;;;;;;15.88;49.80;93513.28;4992265;28;20065;-86
2023/01/12 00:53:05;;;;;;;39.03;27.35;;;;;;;15.85;49.61;93530.63;4986737;28;20040;-86
2023/01/12 00:55:30;;;;;;;38.70;27.38;;;;;;;15.86;49.82;93527.41;5005678;28;20046;-87
2023/01/12 00:57:56;;;;;;;38.67;26.45;;;;;;;15.85;49.69;93525.16;5001946;28;20030;-87
2023/01/12 01:00:21;;;;;;;39.75;26.02;;;;;;;15.86;49.58;93527.41;5014400;28;20467;-87
2023/01/12 01:02:47;;;;;;;36.58;25.35;;;;;;;15.86;49.74;93516.50;5024805;28;20041;-89
2023/01/12 01:05:12;;;;;;;38.60;25.58;;;;;;;15.84;49.80;93516.25;5009274;28;20051;-88
2023/01/12 01:07:37;;;;;;;40.33;26.38;;;;;;;15.84;49.74;93540.03;4986115;28;20045;-90
2023/01/12 01:10:03;;;;;;;39.10;25.90;;;;;;;15.80;49.85;93545.00;4975551;28;20132;-88
2023/01/12 01:12:29;;;;;;;34.72;23.85;;;;;;;15.82;49.72;93537.78;4997178;28;20042;-86
2023/01/12 01:14:54;;;;;;;36.60;24.17;;;;;;;15.88;49.49;93554.94;5003011;28;20046;-86
2023/01/12 01:17:20;;;;;;;38.28;24.38;;;;;;;15.84;49.45;93554.41;4985897;28;20045;-89
2023/01/12 01:19:47;;;;;;;40.25;25.20;;;;;;;15.85;49.96;93552.44;4971675;28;20054;-88
2023/01/12 01:22:13;;;;;;;35.40;23.05;;;;;;;15.88;49.60;93565.09;4992546;28;20056;-87
2023/01/12 01:24:39;;;;;;;35.58;23.73;;;;;;;15.84;49.49;93573.50;4979032;28;20054;-86
2023/01/12 01:27:04;;;;;;;30.70;22.77;;;;;;;15.83;49.62;93571.25;4969058;28;20126;-87
2023/01/12 01:29:29;;;;;;;32.95;23.20;;;;;;;15.82;49.72;93567.78;4976176;28;20062;-85
2023/01/12 01:31:55;;;;;;;33.80;23.00;;;;;;;15.84;49.65;93562.59;4990171;28;20307;-86
2023/01/12 01:34:22;;;;;;;37.35;23.08;;;;;;;15.84;49.81;93567.28;4980169;28;20078;-85
2023/01/12 01:36:48;;;;;;;29.98;21.75;;;;;;;15.84;49.75;93572.75;4965550;28;20520;-86
2023/01/12 01:39:13;;;;;;;36.28;22.67;;;;;;;15.83;49.57;93568.53;5025416;28;20029;-89
2023/01/12 01:41:39;;;;;;;33.22;22.35;;;;;;;15.81;49.86;93574.47;4990789;28;20073;-86
2023/01/12 01:44:29;;;;;;;32.58;22.10;;;;;;;15.85;49.38;93571.50;4993490;28;20038;-88
2023/01/12 01:46:57;;;;;;;30.40;22.05;;;;;;;15.86;49.75;93573.75;5013867;28;20077;-88
2023/01/12 01:49:27;;;;;;;33.28;22.35;;;;;;;15.85;49.74;93563.34;5005406;28;20049;-87
2023/01/12 01:51:53;;;;;;;29.20;20.92;;;;;;;15.83;49.66;93569.28;4997186;28;20038;-88
2023/01/12 01:54:18;;;;;;;32.70;22.33;;;;;;;15.87;49.44;93572.50;4997806;28;20754;-87
2023/01/12 01:56:44;;;;;;;34.15;21.50;;;;;;;15.85;49.69;93571.50;4990949;28;20038;-87
2023/01/12 01:59:15;;;;;;;27.23;19.88;;;;;;;15.83;49.92;93577.44;4989885;28;20057;-90
2023/01/12 02:01:40;;;;;;;33.50;20.90;;;;;;;15.83;49.78;93582.91;5006504;28;20088;-90
2023/01/12 02:04:06;;;;;;;28.88;19.75;;;;;;;15.84;49.62;93576.22;5009687;28;20643;-87
2023/01/12 02:06:31;;;;;;;31.83;21.23;;;;;;;15.81;49.78;93563.56;5010996;28;20049;-90
2023/01/12 02:09:06;;;;;;;30.08;19.20;;;;;;;15.80;49.91;93580.44;4994931;28;20049;-86
2023/01/12 02:17:03;;;;;;;27.55;18.75;;;;;;;15.83;49.62;93582.91;5010693;28;20161;-86
2023/01/12 02:19:59;;;;;;;29.85;19.33;;;;;;;15.81;49.98;93584.63;5010026;28;20046;-86
2023/01/12 02:22:45;;;;;;;24.65;18.42;;;;;;;15.82;49.50;93583.38;5009751;28;20050;-86
2023/01/12 02:25:35;;;;;;;28.42;19.58;;;;;;;15.83;49.51;93580.19;5026391;28;20046;-87
2023/01/12 02:28:11;;;;;;;26.38;18.85;;;;;;;15.83;49.70;93579.44;5002681;28;20042;-88
2023/01/12 02:31:15;;;;;;;26.27;18.67;;;;;;;15.80;49.69;93570.28;5008724;28;20132;-89
2023/01/12 02:34:08;;;;;;;24.15;17.00;;;;;;;15.81;49.61;93571.75;5026615;28;20540;-87
2023/01/12 02:36:58;;;;;;;25.77;18.30;;;;;;;15.83;49.76;93563.06;5025316;28;20045;-86
2023/01/12 02:39:27;;;;;;;23.30;17.27;;;;;;;15.83;49.82;93565.81;5008897;28;20065;-86
2023/01/12 02:45:00;;;;;;;27.38;17.88;;;;;;;15.79;49.98;93568.78;4996639;28;20065;-85
2023/01/12 02:47:35;;;;;;;22.27;16.30;;;;;;;15.81;49.82;93571.00;5008757;28;20436;-86
2023/01/12 02:50:00;;;;;;;26.05;17.83;;;;;;;15.77;49.86;93568.53;5031710;28;20034;-86
2023/01/12 02:52:26;;;;;;;22.27;17.02;;;;;;;15.77;49.99;93574.72;4985167;28;20037;-86
2023/01/12 02:54:51;;;;;;;22.88;16.30;;;;;;;15.79;49.69;93570.75;4997492;28;20042;-89
2023/01/12 02:57:17;;;;;;;22.52;16.45;;;;;;;15.80;49.63;93575.72;5007800;28;20038;-86
2023/01/12 02:59:44;;;;;;;25.67;15.82;;;;;;;15.81;49.40;93579.91;4994008;28;20041;-87
2023/01/12 03:02:15;;;;;;;22.70;15.55;;;;;;;15.81;49.63;93576.44;4978806;28;20058;-87
2023/01/12 03:04:40;;;;;;;;;;;;;;;15.86;49.48;93576.47;5004454;28;20042;-90
2023/01/12 03:07:30;;;;;;;18.73;14.63;;;;;;;15.82;49.42;93565.06;5009291;28;20531;-90
2023/01/12 03:10:11;;;;;;;20.17;13.98;;;;;;;15.79;49.73;93581.66;5012897;28;20166;-88
2023/01/12 03:12:36;;;;;;;20.33;15.25;;;;;;;15.79;49.52;93587.13;4992898;28;20030;-89
2023/01/12 03:15:05;;;;;;;22.60;14.90;;;;;;;15.74;49.80;93592.06;5007957;28;20537;-87
2023/01/12 03:17:46;;;;;;;19.50;14.35;;;;;;;15.77;49.87;93587.59;5022663;28;20492;-90
2023/01/12 03:20:24;;;;;;;21.67;14.85;;;;;;;15.80;49.71;93588.59;4981690;28;20042;-87
2023/01/12 03:22:50;;;;;;;20.60;14.45;;;;;;;15.80;49.75;93608.44;5012825;28;20054;-90
2023/01/12 03:25:16;;;;;;;18.92;13.90;;;;;;;15.77;49.87;93604.72;5006970;28;20038;-90
2023/01/12 03:27:46;;;;;;;18.98;13.23;;;;;;;15.72;49.82;93599.22;4992950;28;20045;-87
2023/01/12 03:30:17;;;;;;;19.45;14.15;;;;;;;15.75;49.69;93598.25;5013175;28;20096;-87
2023/01/12 03:32:43;;;;;;;19.10;14.02;;;;;;;15.79;49.51;93609.66;5014860;28;20041;-87
2023/01/12 03:35:08;;;;;;;21.67;14.13;;;;;;;15.79;49.52;93609.66;5006082;28;20042;-87
2023/01/12 03:37:41;;;;;;;19.65;13.38;;;;;;;15.79;49.71;93609.66;5003310;28;20451;-87
2023/01/12 03:40:15;;;;;;;19.63;13.45;;;;;;;15.78;49.52;93610.91;5010379;28;20673;-91
2023/01/12 03:42:56;;;;;;;18.27;13.50;;;;;;;15.82;49.44;93635.19;5005684;28;20128;-87
2023/01/12 03:45:40;;;;;;;19.60;13.93;;;;;;;15.79;49.76;93628.75;4994645;28;20093;-88
2023/01/12 03:48:19;;;;;;;20.75;14.18;;;;;;;15.82;49.57;93635.19;4997072;28;20523;-87
2023/01/12 03:50:54;;;;;;;18.15;13.05;;;;;;;15.80;49.54;93627.50;5043574;28;20084;-90
2023/01/12 03:53:21;;;;;;;16.15;12.50;;;;;;;15.79;49.56;93630.72;5011837;28;20049;-87
2023/01/12 03:55:47;;;;;;;16.75;12.57;;;;;;;15.83;49.63;93623.78;4987153;28;20048;-86
2023/01/12 03:58:12;;;;;;;17.67;12.55;;;;;;;15.77;49.73;93628.50;5002312;28;20489;-86
2023/01/12 04:00:38;;;;;;;19.08;13.18;;;;;;;15.76;49.65;93632.44;5018580;28;20072;-86
2023/01/12 04:03:08;;;;;;;19.27;12.93;;;;;;;15.77;49.52;93626.50;5006160;28;20358;-86
2023/01/12 04:05:33;;;;;;;18.38;12.43;;;;;;;15.79;49.51;93628.75;5004595;28;20042;-86
2023/01/12 04:07:58;;;;;;;16.40;11.77;;;;;;;15.79;49.53;93622.56;5018992;28;20041;-86
2023/01/12 04:10:24;;;;;;;15.90;11.38;;;;;;;15.80;49.77;93615.88;5005735;28;20034;-88
2023/01/12 04:12:49;;;;;;;18.10;12.05;;;;;;;15.80;49.60;93610.41;5008600;28;20049;-86
2023/01/12 04:15:15;;;;;;;14.52;11.48;;;;;;;15.80;49.71;93600.25;5008963;28;20630;-91
2023/01/12 04:17:40;;;;;;;18.85;12.32;;;;;;;15.76;49.57;93607.91;5018386;28;20468;-86
2023/01/12 04:20:08;;;;;;;16.65;11.98;;;;;;;15.80;49.56;93599.50;5001351;28;20056;-89
2023/01/12 04:22:42;;;;;;;17.52;12.02;;;;;;;15.82;49.38;93594.28;5014422;28;20069;-92
2023/01/12 04:25:15;;;;;;;17.17;11.60;;;;;;;15.76;49.72;93575.22;5011771;28;20568;-86
2023/01/12 04:27:45;;;;;;;16.58;12.05;;;;;;;15.73;49.69;93568.00;4983801;28;20115;-88
2023/01/12 04:30:11;;;;;;;18.38;11.57;;;;;;;15.78;49.50;93567.28;4996383;28;20485;-91
2023/01/12 04:32:36;;;;;;;16.35;12.02;;;;;;;15.79;49.71;93562.59;4990170;28;20030;-89
2023/01/12 04:35:05;;;;;;;15.02;10.77;;;;;;;15.77;49.70;93560.34;5021470;28;20050;-87
2023/01/12 04:37:32;;;;;;;14.95;10.57;;;;;;;15.75;49.46;93558.09;5008304;28;20050;-87
2023/01/12 04:39:58;;;;;;;14.23;11.32;;;;;;;15.79;49.38;93568.03;5007708;28;20577;-88
2023/01/12 04:45:08;;;;;;;13.25;10.13;;;;;;;15.78;49.70;93586.38;5037189;28;20530;-89
2023/01/12 04:47:34;;;;;;;14.75;10.77;;;;;;;15.84;49.52;93594.56;4982834;28;20118;-87
2023/01/12 04:49:59;;;;;;;14.85;10.20;;;;;;;15.78;49.71;93583.66;5006923;28;20117;-89
2023/01/12 04:52:24;;;;;;;14.18;10.75;;;;;;;15.75;49.79;93587.34;5034171;28;20041;-87
2023/01/12 04:54:50;;;;;;;13.88;9.77;;;;;;;15.80;49.39;93578.44;5003783;28;20111;-91
2023/01/12 04:57:15;;;;;;;13.30;9.70;;;;;;;15.81;49.56;93581.91;5008216;28;20077;-89
2023/01/12 04:59:41;;;;;;;13.73;10.13;;;;;;;15.82;49.38;93588.84;5017953;28;20050;-88
2023/01/12 05:02:06;;;;;;;14.30;9.80;;;;;;;15.77;49.71;93590.34;4994449;28;20558;-87
2023/01/12 05:04:32;;;;;;;16.65;10.38;;;;;;;15.77;49.54;93582.91;4994313;28;20662;-90
2023/01/12 05:06:57;;;;;;;15.13;10.45;;;;;;;15.77;49.39;93580.19;5009188;28;20439;-86
2023/01/12 05:12:06;;;;;;;14.35;9.55;;;;;;;15.79;49.29;93576.97;5008432;28;20626;-89
2023/01/12 05:14:32;;;;;;;14.13;9.32;;;;;;;15.77;49.47;93571.25;5017254;28;20050;-91
2023/01/12 05:16:58;;;;;;;14.02;9.82;;;;;;;15.76;49.34;93565.06;5002557;28;20093;-88
2023/01/12 05:19:23;;;;;;;13.88;9.48;;;;;;;15.75;49.71;93582.63;5007057;28;20493;-87
2023/01/12 05:21:49;;;;;;;11.38;8.45;;;;;;;15.74;49.75;93570.25;4999755;28;20051;-88
2023/01/12 05:24:14;;;;;;;12.10;9.18;;;;;;;15.75;49.59;93577.19;5016476;28;20029;-91
2023/01/12 05:26:40;;;;;;;21.17;9.27;;;;;;;15.80;49.54;93581.19;5012593;28;20309;-86
2023/01/12 05:29:07;;;;;;;13.93;9.00;;;;;;;15.90;50.14;93595.31;4973665;28;20096;-88
2023/01/12 05:31:32;;;;;;;32.25;15.82;;;;;;;15.93;49.81;93600.56;4989436;28;20034;-85
2023/01/12 05:33:58;;;;;;;18.15;13.27;;;;;;;15.98;49.30;93605.28;4994863;28;20459;-90
2023/01/12 05:36:23;;;;;;;23.30;12.10;;;;;;;16.15;49.01;93610.03;5031306;28;20553;-86
2023/01/12 05:38:49;;;;;;;19.27;8.45;;;;;;;16.11;49.17;93611.03;4992014;28;20639;-89
2023/01/12 05:41:14;;;;;;;14.95;8.73;;;;;;;16.11;49.39;93610.28;5003949;28;20049;-90
2023/01/12 05:43:53;;;;;;;17.40;9.45;;;;;;;16.13;49.48;93617.97;4992458;28;20030;-89
2023/01/12 05:46:29;;;;;;;14.10;9.80;;;;;;;16.14;48.90;93622.19;5027215;28;20042;-93
2023/01/12 05:48:55;;;;;;;16.65;11.88;;;;;;;16.06;49.08;93630.84;5017084;28;20038;-89
2023/01/12 05:51:20;;;;;;;15.30;10.65;;;;;;;16.06;48.98;93622.66;5005340;28;20042;-90
2023/01/12 05:53:46;;;;;;;42.45;16.63;;;;;;;16.06;49.26;93630.09;4990353;28;20041;-91
2023/01/12 05:56:16;;;;;;;30.13;11.65;;;;;;;16.03;48.92;93622.88;4988167;28;20038;-90
2023/01/12 05:58:42;;;;;;;59.15;24.63;;;;;;;16.01;49.03;93622.66;5038440;28;20240;-88
2023/01/12 06:01:08;;;;;;;104.38;46.20;;;;;;;16.04;48.93;93629.81;5007033;28;20501;-89
2023/01/12 06:03:34;;;;;;;47.63;22.60;;;;;;;15.98;49.20;93632.56;4990256;28;20045;-91
2023/01/12 06:05:59;;;;;;;92.75;38.60;;;;;;;16.03;48.74;93633.78;4991902;28;20042;-89
2023/01/12 06:08:25;;;;;;;82.53;39.92;;;;;;;15.96;48.84;93631.53;5023966;28;20042;-90
2023/01/12 06:10:51;;;;;;;84.28;42.63;;;;;;;15.91;49.03;93635.72;5006701;28;20053;-89
2023/01/12 06:16:04;;;;;;;77.93;34.88;;;;;;;16.02;49.07;93633.03;4995534;28;20041;-87
2023/01/12 06:18:33;;;;;;;76.28;36.40;;;;;;;15.98;48.91;93635.28;5006874;28;20058;-88
2023/01/12 06:20:59;;;;;;;134.82;57.00;;;;;;;15.91;47.88;93626.81;5032179;28;20145;-90
2023/01/12 06:23:24;;;;;;;103.38;42.55;;;;;;;15.81;47.07;93625.50;5015299;28;20154;-89
2023/01/12 06:25:50;;;;;;;116.07;45.22;;;;;;;15.78;47.50;93629.97;5000519;28;20046;-89
2023/01/12 06:28:16;;;;;;;107.72;44.83;;;;;;;15.80;47.40;93622.06;5006310;28;21023;-93
2023/01/12 06:30:41;;;;;;;97.00;41.13;;;;;;;15.85;47.86;93623.31;4990598;28;20409;-89
2023/01/12 06:33:07;;;;;;;84.95;43.92;;;;;;;15.89;48.49;93626.56;4990218;28;20031;-85
2023/01/12 06:35:32;;;;;;;93.53;43.33;;;;;;;15.88;48.56;93622.34;4990501;28;20072;-88
2023/01/12 06:37:58;;;;;;;109.95;44.72;;;;;;;15.90;48.99;93636.22;4989311;28;20033;-88
2023/01/12 06:40:23;;;;;;;101.03;45.97;;;;;;;15.88;49.14;93625.06;4986235;28;20034;-87
2023/01/12 06:42:48;;;;;;;86.82;39.40;;;;;;;15.94;48.62;93631.28;4989620;28;20046;-89
2023/01/12 06:45:14;;;;;;;84.60;40.63;;;;;;;15.91;48.96;93629.53;5005184;28;20164;-92
2023/01/12 06:47:43;;;;;;;86.57;38.25;;;;;;;15.87;48.94;93629.75;4987044;28;20085;-87
2023/01/12 06:50:09;;;;;;;76.35;37.30;;;;;;;15.90;48.66;93626.06;5006779;28;20038;-87
2023/01/12 06:52:35;;;;;;;85.50;38.65;;;;;;;15.91;48.81;93635.72;5008997;28;20042;-92
2023/01/12 06:55:00;;;;;;;85.65;38.58;;;;;;;15.95;48.54;93638.97;5008308;28;20037;-90
2023/01/12 06:57:26;;;;;;;88.57;43.55;;;;;;;15.97;48.76;93636.50;5034282;28;20041;-88
2023/01/12 06:59:51;;;;;;;85.05;39.20;;;;;;;16.00;48.57;93632.81;5010677;28;20069;-87
2023/01/12 07:02:17;;;;;;;80.22;40.20;;;;;;;16.09;48.59;93634.56;5026752;28;20034;-86
2023/01/12 07:04:42;;;;;;;80.20;38.60;;;;;;;16.15;48.69;93646.25;5025808;28;20096;-90
2023/01/12 07:07:09;;;;;;;85.47;41.55;;;;;;;16.13;48.74;93643.25;5009398;28;20037;-91
2023/01/12 07:09:34;;;;;;;72.88;39.92;;;;;;;16.20;49.74;93645.53;4976512;28;20346;-90
2023/01/12 07:12:01;;;;;;;69.43;39.22;;;;;;;16.23;48.97;93643.81;4994704;28;20101;-88
2023/01/12 07:14:26;;;;;;;78.63;38.97;;;;;;;16.31;48.92;93640.09;4980525;28;20046;-87
2023/01/12 07:16:52;;;;;;;76.10;39.97;;;;;;;16.35;48.84;93645.31;5018873;28;20577;-88
2023/01/12 07:19:17;;;;;;;70.20;36.63;;;;;;;16.39;48.64;93638.41;4994186;28;20042;-94
2023/01/12 07:21:43;;;;;;;59.05;33.03;;;;;;;16.44;47.62;93643.13;4996086;28;20042;-92
2023/01/12 07:24:09;;;;;;;65.70;33.92;;;;;;;16.38;48.00;93644.34;4978694;28;20034;-90
2023/01/12 07:26:34;;;;;;;67.28;33.78;;;;;;;16.35;47.86;93639.88;4977568;28;20049;-90
2023/01/12 07:29:00;;;;;;;70.00;34.97;;;;;;;16.30;48.17;93635.13;4993627;28;20058;-89
2023/01/12 07:31:25;;;;;;;61.45;32.60;;;;;;;16.20;48.43;93645.53;4993942;28;20042;-90
2023/01/12 07:33:52;;;;;;;61.50;30.63;;;;;;;16.18;48.03;93644.53;5011077;28;20053;-92
2023/01/12 07:36:17;;;;;;;59.88;31.75;;;;;;;16.17;48.11;93640.31;5010288;28;20492;-90
2023/01/12 07:38:43;;;;;;;62.30;32.38;;;;;;;16.11;48.24;93635.56;4992865;28;20052;-93
2023/01/12 07:42:22;;;;;;;69.03;31.58;;;;;;;16.09;48.50;93637.28;4974052;28;20560;-91
2023/01/12 07:43:56;;;;;;;53.90;29.88;;;;;;;16.11;48.51;93632.84;5010328;28;20038;-89
2023/01/12 07:46:22;;;;;;;66.43;26.15;;;;;;;16.11;47.19;93626.63;5010461;28;20878;-89
2023/01/12 07:48:48;;;;;;;76.40;23.40;;;;;;;16.00;47.20;93640.25;4989576;28;20035;-88
2023/01/12 07:51:14;;;;;;;62.67;22.98;;;;;;;16.02;46.94;93632.31;4988463;28;20046;-92
2023/01/12 07:53:39;;;;;;;54.65;22.77;;;;;;;15.99;47.47;93642.22;4994641;28;20062;-91
2023/01/12 07:56:08;;;;;;;68.28;27.08;;;;;;;15.99;48.02;93630.56;5016036;28;20030;-91
2023/01/12 07:58:33;;;;;;;63.25;26.95;;;;;;;15.98;48.26;93632.56;4995008;28;20033;-91
2023/01/12 08:00:59;;;;;;;54.35;24.40;;;;;;;15.98;48.09;93634.53;4972077;28;20057;-90
2023/01/12 08:03:25;;;;;;;54.72;23.77;;;;;;;16.03;48.13;93633.78;4989666;28;20034;-90
2023/01/12 08:05:51;;;;;;;58.67;23.92;;;;;;;16.08;48.03;93639.28;4991893;28;20042;-91
2023/01/12 08:08:16;;;;;;;61.10;27.85;;;;;;;16.05;48.99;93628.59;4981764;28;20513;-90
2023/01/12 08:10:44;;;;;;;50.95;23.65;;;;;;;16.09;48.70;93632.59;4969043;28;20509;-91
2023/01/12 08:13:09;;;;;;;67.50;26.90;;;;;;;16.05;48.77;93626.63;5001082;28;20034;-92
2023/01/12 08:15:39;;;;;;;74.30;26.65;;;;;;;16.11;48.56;93626.63;4989731;28;20559;-92
2023/01/12 08:18:11;;;;;;;103.40;49.47;;;;;;;16.14;48.45;93625.66;4991813;28;20513;-91
2023/01/12 08:20:36;;;;;;;78.40;33.95;;;;;;;16.10;49.54;93622.41;5009319;28;20742;-91
2023/01/12 08:23:07;;;;;;;124.95;43.03;;;;;;;16.11;48.76;93621.19;4992606;28;20125;-92
2023/01/12 08:25:33;;;;;;;;;;;;;;;16.16;48.49;93622.44;4993848;28;20042;-92
2023/01/12 08:28:01;;;;;;;64.20;23.50;;;;;;;16.03;46.63;93631.81;4989304;28;19925;-92
2023/01/12 08:30:27;;;;;;;52.80;21.88;;;;;;;15.97;45.97;93624.84;4992044;28;20052;-90
2023/01/12 08:32:54;;;;;;;54.00;21.95;;;;;;;15.93;46.02;93622.38;5000740;28;20607;-92
2023/01/12 08:35:20;;;;;;;73.47;26.33;;;;;;;15.96;46.38;93632.28;4980573;28;20113;-90
2023/01/12 08:37:46;;;;;;;91.18;40.28;;;;;;;16.06;48.31;93638.25;4988852;28;20127;-90
2023/01/12 08:40:12;;;;;;;106.68;47.75;;;;;;;16.13;48.28;93637.06;5006056;28;20038;-92
2023/01/12 08:42:37;;;;;;;107.28;45.00;;;;;;;15.98;47.48;93629.81;4989578;28;20034;-92
2023/01/12 08:45:05;;;;;;;85.07;35.67;;;;;;;15.92;46.81;93628.31;4990303;28;20050;-89
2023/01/12 08:47:31;;;;;;;65.60;30.80;;;;;;;15.95;46.57;93632.78;5019846;28;20066;-91
2023/01/12 08:49:58;;;;;;;97.38;35.90;;;;;;;16.00;47.23;93638.25;5009717;28;20277;-91
2023/01/12 08:52:28;;;;;;;102.88;37.72;;;;;;;16.06;47.39;93632.81;4991929;28;20088;-90
2023/01/12 08:54:54;;;;;;;116.20;44.83;;;;;;;16.07;47.64;93626.13;5004510;28;20053;-91
2023/01/12 08:57:19;;;;;;;119.13;51.92;;;;;;;16.13;47.67;93632.34;5007984;28;20030;-90
2023/01/12 08:59:45;;;;;;;132.23;58.10;;;;;;;16.13;48.35;93639.78;5005258;28;20623;-91
2023/01/12 09:02:11;;;;;;;139.48;57.42;;;;;;;16.17;48.13;93641.06;4992129;28;20045;-90
2023/01/12 09:04:39;;;;;;;151.73;67.15;;;;;;;16.17;48.12;93643.78;4997427;28;20038;-91
2023/01/12 09:07:05;;;;;;;165.85;77.85;;;;;;;16.23;48.05;93650.00;4979133;28;20034;-94
2023/01/12 09:09:33;;;;;;;173.68;81.68;;;;;;;16.18;48.37;93641.78;4997636;28;20080;-93
2023/01/12 09:11:59;;;;;;;172.30;83.05;;;;;;;16.21;48.70;93649.00;5001837;28;20095;-92
2023/01/12 09:14:37;;;;;;;156.45;70.90;;;;;;;16.24;47.92;93640.56;4997743;28;20033;-92
2023/01/12 09:17:04;;;;;;;153.02;65.80;;;;;;;16.26;48.29;93634.63;5004222;28;20046;-93
2023/01/12 09:19:31;;;;;;;144.57;69.68;;;;;;;16.27;47.99;93641.56;4997317;28;20133;-92
2023/01/12 09:21:56;;;;;;;161.30;71.10;;;;;;;16.30;48.22;93641.34;4996272;28;20125;-89
2023/01/12 09:24:22;;;;;;;176.10;71.00;;;;;;;16.32;48.29;93643.56;4998828;28;21552;-92
2023/01/12 09:26:47;;;;;;;154.30;65.78;;;;;;;16.33;47.81;93640.34;4999151;28;20050;-90
2023/01/12 09:29:13;;;;;;;147.00;66.20;;;;;;;16.28;48.22;93638.34;5029501;28;20068;-91
2023/01/12 09:31:40;;;;;;;166.48;70.30;;;;;;;16.30;48.06;93638.59;4978725;28;20044;-92
2023/01/12 09:34:06;;;;;;;161.25;66.93;;;;;;;16.27;48.57;93625.94;4991041;28;20084;-91
2023/01/12 09:36:33;;;;;;;150.10;67.07;;;;;;;16.40;47.88;93631.72;4997055;28;20050;-92
2023/01/12 09:39:00;;;;;;;185.27;51.95;;;;;;;16.21;46.43;93635.38;5005837;28;20065;-90
2023/01/12 09:47:35;;;;;;;99.80;38.50;;;;;;;16.16;46.28;93630.63;5020135;28;20045;-90
2023/01/12 09:50:11;;;;;;;136.52;49.00;;;;;;;16.18;47.16;93634.38;4977308;28;20072;-91
2023/01/12 09:52:57;;;;;;;130.35;50.55;;;;;;;16.18;47.25;93618.00;4981352;28;20546;-91
2023/01/12 09:55:24;;;;;;;129.02;53.25;;;;;;;16.23;47.55;93613.81;4999067;28;20474;-92
2023/01/12 09:58:09;;;;;;;134.85;51.13;;;;;;;16.21;47.61;93605.38;4982282;28;20061;-93
2023/01/12 10:00:34;;;;;;;125.53;49.70;;;;;;;16.17;47.86;93602.13;5014917;28;20045;-92
2023/01/12 10:03:09;;;;;;;111.00;42.45;;;;;;;16.25;47.70;93608.56;5007613;28;20124;-90
2023/01/12 10:05:51;;;;;;;103.93;43.53;;;;;;;16.31;47.68;93606.63;5005357;28;20049;-90
2023/01/12 10:08:22;;;;;;;109.35;44.55;;;;;;;16.26;47.63;93601.88;5005950;28;20038;-92
2023/01/12 10:11:20;;;;;;;109.45;48.33;;;;;;;16.23;47.78;93611.81;5014108;28;20125;-93
2023/01/12 10:14:03;;;;;;;89.38;40.60;;;;;;;16.34;47.92;93608.38;5014555;28;20166;-92
2023/01/12 10:17:06;;;;;;;89.63;40.42;;;;;;;16.33;47.55;93607.63;5000853;28;20051;-92
2023/01/12 10:19:36;;;;;;;102.32;44.50;;;;;;;16.32;47.71;93597.94;5004602;28;20096;-92
2023/01/12 10:22:08;;;;;;;93.13;40.78;;;;;;;16.37;47.91;93601.94;4991260;28;20116;-92
2023/01/12 10:24:34;;;;;;;95.28;43.97;;;;;;;16.32;47.74;93602.66;4991351;28;20042;-90
2023/01/12 10:27:00;;;;;;;91.00;38.75;;;;;;;16.40;47.72;93588.06;4974138;28;20124;-91
2023/01/12 10:29:26;;;;;;;80.55;38.92;;;;;;;16.39;47.89;93592.00;4976222;28;20188;-92
2023/01/12 10:31:51;;;;;;;79.00;36.20;;;;;;;16.35;47.76;93588.03;4988957;28;20061;-90
2023/01/12 10:34:17;;;;;;;80.65;39.03;;;;;;;16.34;47.86;93590.00;4993128;28;20038;-91
2023/01/12 10:36:45;;;;;;;85.97;38.00;;;;;;;16.39;47.55;93592.00;4994698;28;20489;-91
2023/01/12 10:39:32;;;;;;;87.18;38.78;;;;;;;16.35;47.74;93585.31;4993818;28;20049;-89
2023/01/12 10:45:20;;;;;;;78.15;36.33;;;;;;;16.35;48.28;93574.38;5013698;28;20116;-91
2023/01/12 10:47:46;;;;;;;79.13;33.40;;;;;;;16.43;48.15;93564.50;4998999;28;20038;-92
2023/01/12 10:50:26;;;;;;;73.30;32.75;;;;;;;16.35;48.06;93574.38;5014631;28;20056;-92
2023/01/12 10:53:05;;;;;;;64.85;28.10;;;;;;;16.37;48.08;93567.22;5020472;28;20088;-92
2023/01/12 10:55:32;;;;;;;87.28;33.78;;;;;;;16.31;48.38;93574.63;5009269;28;20437;-92
2023/01/12 10:57:58;;;;;;;66.40;29.27;;;;;;;16.41;48.02;93564.97;4994486;28;20100;-91
2023/01/12 11:00:25;;;;;;;86.55;30.63;;;;;;;16.36;48.21;93573.16;4987340;28;20040;-91
2023/01/12 11:03:00;;;;;;;69.45;30.45;;;;;;;16.32;48.23;93559.75;4995647;28;20116;-93
2023/01/12 11:05:37;;;;;;;79.82;30.88;;;;;;;16.33;48.44;93560.50;5025623;28;20049;-92
2023/01/12 11:08:20;;;;;;;65.90;29.30;;;;;;;16.36;48.07;93559.50;5030535;28;20040;-93
2023/01/12 11:10:47;;;;;;;62.08;28.42;;;;;;;16.33;48.21;93555.78;4990770;28;20038;-88
2023/01/12 11:13:25;;;;;;;62.85;27.85;;;;;;;16.36;48.24;93560.25;4999126;28;20045;-92
2023/01/12 11:15:59;;;;;;;52.80;25.92;;;;;;;16.34;48.28;93557.28;4976596;28;20630;-93
2023/01/12 11:18:34;;;;;;;55.55;26.13;;;;;;;16.32;48.05;93548.09;4989949;28;20068;-91
2023/01/12 11:21:02;;;;;;;44.55;22.45;;;;;;;16.43;48.31;93531.75;5006582;28;20209;-92
2023/01/12 11:23:46;;;;;;;51.40;22.35;;;;;;;16.41;48.03;93534.22;4983241;28;20142;-90
2023/01/12 11:26:19;;;;;;;40.05;22.25;;;;;;;16.35;48.25;93528.75;5019392;28;20041;-89
2023/01/12 11:28:47;;;;;;;45.40;24.52;;;;;;;16.35;48.47;93514.38;4979298;28;20057;-88
2023/01/12 11:31:27;;;;;;;54.40;24.02;;;;;;;16.39;47.77;93523.81;5009336;28;20052;-90
2023/01/12 11:33:58;;;;;;;57.25;23.42;;;;;;;16.36;48.37;93513.88;4996428;28;20100;-88
2023/01/12 11:36:28;;;;;;;56.53;26.77;;;;;;;16.36;48.54;93524.78;4985523;28;20204;-90
2023/01/12 11:38:59;;;;;;;50.30;25.48;;;;;;;16.34;48.16;93519.09;4987564;28;20061;-89
2023/01/12 11:41:29;;;;;;;71.20;32.95;;;;;;;16.38;48.17;93508.69;4960785;28;20038;-90
2023/01/12 11:44:00;;;;;;;57.30;28.10;;;;;;;16.34;48.59;93505.44;4986151;28;20051;-90
2023/01/12 11:46:38;;;;;;;71.30;31.58;;;;;;;16.34;48.23;93505.44;4971653;28;20532;-88
2023/01/12 11:49:22;;;;;;;62.85;26.88;;;;;;;16.41;47.98;93498.75;4976729;28;20536;-90
2023/01/12 11:51:48;;;;;;;57.55;24.25;;;;;;;16.41;48.34;93502.22;4987353;28;20834;-89
2023/01/12 11:54:15;;;;;;;64.60;29.58;;;;;;;16.42;48.45;93505.72;4965907;28;20058;-91
2023/01/12 11:57:09;;;;;;;68.47;30.85;;;;;;;16.35;48.12;93496.03;4995762;28;20045;-89